Time,TemperatureF,DewpointF,PressureIn,WindDirection,WindDirectionDegrees,WindSpeedMPH,WindSpeedGustMPH,Humidity,HourlyPrecipIn,Conditions,Clouds,dailyrainin,SoftwareType,DateUTC
2013-05-15 00:02:00,50.0,25.0,-100.00,North,-999,-999.0,-999.0,38,-99.99,,,-99.99,,2013-05-15 06:02:00,
2013-05-15 00:11:00,51.0,25.0,-100.00,North,-999,-999.0,-999.0,36,-99.99,,,-99.99,,2013-05-15 06:11:00,
2013-05-15 00:21:00,51.0,25.0,-100.00,North,-999,-999.0,-999.0,36,-99.99,,,-99.99,,2013-05-15 06:21:00,
2013-05-15 00:31:00,50.0,24.0,-100.00,North,-999,-999.0,-999.0,36,-99.99,,,-99.99,,2013-05-15 06:31:00,
2013-05-15 00:41:00,50.0,24.0,-100.00,North,-999,-999.0,-999.0,36,-99.99,,,-99.99,,2013-05-15 06:41:00,
2013-05-15 00:52:00,51.0,24.0,-100.00,North,-999,-999.0,-999.0,34,-99.99,,,-99.99,,2013-05-15 06:52:00,
2013-05-15 01:01:00,51.0,23.0,-100.00,North,-999,-999.0,-999.0,33,-99.99,,,-99.99,,2013-05-15 07:01:00,
2013-05-15 01:11:00,51.0,23.0,-100.00,North,-999,-999.0,-999.0,33,-99.99,,,-99.99,,2013-05-15 07:11:00,
2013-05-15 01:21:00,51.0,23.0,-100.00,North,-999,-999.0,-999.0,33,-99.99,,,-99.99,,2013-05-15 07:21:00,
2013-05-15 01:32:00,52.0,22.0,-100.00,North,-999,-999.0,-999.0,31,-99.99,,,-99.99,,2013-05-15 07:32:00,
2013-05-15 01:41:00,52.0,22.0,-100.00,North,-999,-999.0,-999.0,31,-99.99,,,-99.99,,2013-05-15 07:41:00,
2013-05-15 01:52:00,51.0,22.0,-100.00,North,-999,-999.0,-999.0,32,-99.99,,,-99.99,,2013-05-15 07:52:00,
2013-05-15 02:02:00,51.0,22.0,-100.00,North,-999,-999.0,-999.0,32,-99.99,,,-99.99,,2013-05-15 08:02:00,
2013-05-15 02:12:00,51.0,22.0,-100.00,North,-999,-999.0,-999.0,32,-99.99,,,-99.99,,2013-05-15 08:12:00,
2013-05-15 02:21:00,51.0,22.0,-100.00,North,-999,-999.0,-999.0,32,-99.99,,,-99.99,,2013-05-15 08:21:00,
2013-05-15 02:31:00,50.0,22.0,-100.00,North,-999,-999.0,-999.0,33,-99.99,,,-99.99,,2013-05-15 08:31:00,
2013-05-15 02:42:00,50.0,23.0,-100.00,North,-999,-999.0,-999.0,34,-99.99,,,-99.99,,2013-05-15 08:42:00,
2013-05-15 02:53:00,50.0,23.0,-100.00,North,-999,-999.0,-999.0,34,-99.99,,,-99.99,,2013-05-15 08:53:00,
2013-05-15 03:01:00,49.0,25.0,-100.00,North,-999,-999.0,-999.0,38,-99.99,,,-99.99,,2013-05-15 09:01:00,
2013-05-15 03:11:00,49.0,25.0,-100.00,North,-999,-999.0,-999.0,38,-99.99,,,-99.99,,2013-05-15 09:11:00,
2013-05-15 03:21:00,47.0,25.0,-100.00,North,-999,-999.0,-999.0,42,-99.99,,,-99.99,,2013-05-15 09:21:00,
2013-05-15 03:32:00,45.0,24.0,-100.00,North,-999,-999.0,-999.0,44,-99.99,,,-99.99,,2013-05-15 09:32:00,
2013-05-15 03:42:00,46.0,24.0,-100.00,North,-999,-999.0,-999.0,42,-99.99,,,-99.99,,2013-05-15 09:42:00,
2013-05-15 03:53:00,46.0,24.0,-100.00,North,-999,-999.0,-999.0,42,-99.99,,,-99.99,,2013-05-15 09:53:00,
2013-05-15 04:02:00,47.0,22.0,-100.00,North,-999,-999.0,-999.0,37,-99.99,,,-99.99,,2013-05-15 10:02:00,
2013-05-15 04:12:00,46.0,22.0,-100.00,North,-999,-999.0,-999.0,39,-99.99,,,-99.99,,2013-05-15 10:12:00,
2013-05-15 04:22:00,46.0,22.0,-100.00,North,-999,-999.0,-999.0,39,-99.99,,,-99.99,,2013-05-15 10:22:00,
2013-05-15 04:32:00,46.0,24.0,-100.00,North,-999,-999.0,-999.0,41,-99.99,,,-99.99,,2013-05-15 10:32:00,
2013-05-15 04:42:00,45.0,23.0,-100.00,North,-999,-999.0,-999.0,42,-99.99,,,-99.99,,2013-05-15 10:42:00,
2013-05-15 04:52:00,45.0,23.0,-100.00,North,-999,-999.0,-999.0,42,-99.99,,,-99.99,,2013-05-15 10:52:00,
2013-05-15 05:24:00,43.0,25.0,-100.00,North,-999,-999.0,-999.0,48,-99.99,,,-99.99,,2013-05-15 11:24:00,
2013-05-15 05:33:00,44.0,24.0,-100.00,North,-999,-999.0,-999.0,45,-99.99,,,-99.99,,2013-05-15 11:33:00,
2013-05-15 05:45:00,44.0,23.0,-100.00,North,-999,-999.0,-999.0,43,-99.99,,,-99.99,,2013-05-15 11:45:00,
2013-05-15 06:06:00,45.0,23.0,-100.00,North,-999,-999.0,-999.0,42,-99.99,,,-99.99,,2013-05-15 12:06:00,
2013-05-15 06:12:00,43.0,25.0,-100.00,North,-999,-999.0,-999.0,49,-99.99,,,-99.99,,2013-05-15 12:12:00,
2013-05-15 06:33:00,43.0,24.0,-100.00,North,-999,-999.0,-999.0,46,-99.99,,,-99.99,,2013-05-15 12:33:00,
2013-05-15 06:44:00,43.0,24.0,-100.00,North,-999,-999.0,-999.0,46,-99.99,,,-99.99,,2013-05-15 12:44:00,
2013-05-15 06:56:00,43.0,24.0,-100.00,North,-999,-999.0,-999.0,46,-99.99,,,-99.99,,2013-05-15 12:56:00,
2013-05-15 07:02:00,43.0,26.0,-100.00,North,-999,-999.0,-999.0,50,-99.99,,,-99.99,,2013-05-15 13:02:00,
2013-05-15 07:14:00,43.0,25.0,-100.00,North,-999,-999.0,-999.0,49,-99.99,,,-99.99,,2013-05-15 13:14:00,
2013-05-15 07:24:00,43.0,25.0,-100.00,North,-999,-999.0,-999.0,49,-99.99,,,-99.99,,2013-05-15 13:24:00,
2013-05-15 07:33:00,44.0,26.0,-100.00,North,-999,-999.0,-999.0,49,-99.99,,,-99.99,,2013-05-15 13:33:00,
2013-05-15 07:44:00,44.0,26.0,-100.00,North,-999,-999.0,-999.0,49,-99.99,,,-99.99,,2013-05-15 13:44:00,
2013-05-15 07:57:00,45.0,27.0,-100.00,North,-999,-999.0,-999.0,50,-99.99,,,-99.99,,2013-05-15 13:57:00,
2013-05-15 08:02:00,46.0,30.0,-100.00,North,-999,-999.0,-999.0,53,-99.99,,,-99.99,,2013-05-15 14:02:00,
2013-05-15 08:12:00,46.0,31.0,-100.00,North,-999,-999.0,-999.0,56,-99.99,,,-99.99,,2013-05-15 14:12:00,
2013-05-15 08:25:00,46.0,31.0,-100.00,North,-999,-999.0,-999.0,56,-99.99,,,-99.99,,2013-05-15 14:25:00,
2013-05-15 08:35:00,47.0,31.0,-100.00,North,-999,-999.0,-999.0,53,-99.99,,,-99.99,,2013-05-15 14:35:00,
2013-05-15 08:43:00,49.0,33.0,-100.00,North,-999,-999.0,-999.0,53,-99.99,,,-99.99,,2013-05-15 14:43:00,
2013-05-15 08:56:00,49.0,33.0,-100.00,North,-999,-999.0,-999.0,53,-99.99,,,-99.99,,2013-05-15 14:56:00,
2013-05-15 09:26:00,52.0,32.0,-100.00,North,-999,-999.0,-999.0,47,-99.99,,,-99.99,,2013-05-15 15:26:00,
2013-05-15 09:35:00,52.0,32.0,-100.00,North,-999,-999.0,-999.0,47,-99.99,,,-99.99,,2013-05-15 15:35:00,
2013-05-15 10:04:00,51.0,33.0,-100.00,North,-999,-999.0,-999.0,49,-99.99,,,-99.99,,2013-05-15 16:04:00,
2013-05-15 10:17:00,53.0,33.0,-100.00,North,-999,-999.0,-999.0,46,-99.99,,,-99.99,,2013-05-15 16:17:00,
2013-05-15 10:26:00,53.0,33.0,-100.00,North,-999,-999.0,-999.0,46,-99.99,,,-99.99,,2013-05-15 16:26:00,
2013-05-15 10:30:00,54.0,34.0,-100.00,North,-999,-999.0,-999.0,47,-99.99,,,-99.99,,2013-05-15 16:30:00,
2013-05-15 10:34:00,53.0,33.0,-100.00,North,-999,-999.0,-999.0,46,-99.99,,,-99.99,,2013-05-15 16:34:00,
2013-05-15 10:45:00,53.0,33.0,-100.00,North,-999,-999.0,-999.0,46,-99.99,,,-99.99,,2013-05-15 16:45:00,
2013-05-15 10:56:00,54.0,35.0,-100.00,North,-999,-999.0,-999.0,48,-99.99,,,-99.99,,2013-05-15 16:56:00,
2013-05-15 11:26:00,54.0,34.0,-100.00,North,-999,-999.0,-999.0,47,-99.99,,,-99.99,,2013-05-15 17:26:00,
2013-05-15 11:58:00,57.0,34.0,-100.00,North,-999,-999.0,-999.0,41,-99.99,,,-99.99,,2013-05-15 17:58:00,
2013-05-15 12:04:00,58.0,33.0,-100.00,North,-999,-999.0,-999.0,38,-99.99,,,-99.99,,2013-05-15 18:04:00,
2013-05-15 12:13:00,58.0,33.0,-100.00,North,-999,-999.0,-999.0,38,-99.99,,,-99.99,,2013-05-15 18:13:00,
2013-05-15 12:25:00,61.0,32.0,-100.00,North,-999,-999.0,-999.0,34,-99.99,,,-99.99,,2013-05-15 18:25:00,
2013-05-15 12:35:00,62.0,30.0,-100.00,North,-999,-999.0,-999.0,30,-99.99,,,-99.99,,2013-05-15 18:35:00,
2013-05-15 12:46:00,62.0,30.0,-100.00,North,-999,-999.0,-999.0,30,-99.99,,,-99.99,,2013-05-15 18:46:00,
2013-05-15 12:55:00,61.0,29.0,-100.00,North,-999,-999.0,-999.0,29,-99.99,,,-99.99,,2013-05-15 18:55:00,
2013-05-15 13:13:00,62.0,28.0,-100.00,North,-999,-999.0,-999.0,27,-99.99,,,-99.99,,2013-05-15 19:13:00,
2013-05-15 13:34:00,63.0,28.0,-100.00,North,-999,-999.0,-999.0,26,-99.99,,,-99.99,,2013-05-15 19:34:00,
2013-05-15 13:56:00,63.0,29.0,-100.00,North,-999,-999.0,-999.0,27,-99.99,,,-99.99,,2013-05-15 19:56:00,
2013-05-15 14:13:00,62.0,29.0,-100.00,North,-999,-999.0,-999.0,28,-99.99,,,-99.99,,2013-05-15 20:13:00,
2013-05-15 14:33:00,60.0,28.0,-100.00,North,-999,-999.0,-999.0,30,-99.99,,,-99.99,,2013-05-15 20:33:00,
2013-05-15 14:44:00,60.0,28.0,-100.00,North,-999,-999.0,-999.0,30,-99.99,,,-99.99,,2013-05-15 20:44:00,
2013-05-15 15:26:00,59.0,29.0,-100.00,North,-999,-999.0,-999.0,32,-99.99,,,-99.99,,2013-05-15 21:26:00,
2013-05-15 15:37:00,56.0,29.0,-100.00,North,-999,-999.0,-999.0,36,-99.99,,,-99.99,,2013-05-15 21:37:00,
2013-05-15 15:47:00,56.0,29.0,-100.00,North,-999,-999.0,-999.0,36,-99.99,,,-99.99,,2013-05-15 21:47:00,
2013-05-15 15:59:00,57.0,30.0,-100.00,North,-999,-999.0,-999.0,36,-99.99,,,-99.99,,2013-05-15 21:59:00,
2013-05-15 16:06:00,58.0,30.0,-100.00,North,-999,-999.0,-999.0,34,-99.99,,,-99.99,,2013-05-15 22:06:00,
2013-05-15 16:15:00,58.0,30.0,-100.00,North,-999,-999.0,-999.0,34,-99.99,,,-99.99,,2013-05-15 22:15:00,
2013-05-15 16:27:00,61.0,31.0,-100.00,North,-999,-999.0,-999.0,32,-99.99,,,-99.99,,2013-05-15 22:27:00,
2013-05-15 16:35:00,61.0,32.0,-100.00,North,-999,-999.0,-999.0,34,-99.99,,,-99.99,,2013-05-15 22:35:00,
2013-05-15 16:46:00,61.0,32.0,-100.00,North,-999,-999.0,-999.0,34,-99.99,,,-99.99,,2013-05-15 22:46:00,
2013-05-15 16:57:00,60.0,32.0,-100.00,North,-999,-999.0,-999.0,34,-99.99,,,-99.99,,2013-05-15 22:57:00,
2013-05-15 17:14:00,59.0,31.0,-100.00,North,-999,-999.0,-999.0,34,-99.99,,,-99.99,,2013-05-15 23:14:00,
2013-05-15 17:25:00,58.0,31.0,-100.00,North,-999,-999.0,-999.0,36,-99.99,,,-99.99,,2013-05-15 23:25:00,
2013-05-15 17:58:00,55.0,31.0,-100.00,North,-999,-999.0,-999.0,40,-99.99,,,-99.99,,2013-05-15 23:58:00,
2013-05-15 18:03:00,55.0,31.0,-100.00,North,-999,-999.0,-999.0,40,-99.99,,,-99.99,,2013-05-16 00:03:00,
2013-05-15 18:15:00,55.0,31.0,-100.00,North,-999,-999.0,-999.0,40,-99.99,,,-99.99,,2013-05-16 00:15:00,
2013-05-15 18:24:00,57.0,31.0,-100.00,North,-999,-999.0,-999.0,37,-99.99,,,-99.99,,2013-05-16 00:24:00,
2013-05-15 18:34:00,57.0,31.0,-100.00,North,-999,-999.0,-999.0,37,-99.99,,,-99.99,,2013-05-16 00:34:00,
2013-05-15 18:57:00,56.0,31.0,-100.00,North,-999,-999.0,-999.0,39,-99.99,,,-99.99,,2013-05-16 00:57:00,
2013-05-15 19:05:00,55.0,31.0,-100.00,North,-999,-999.0,-999.0,39,-99.99,,,-99.99,,2013-05-16 01:05:00,
2013-05-15 19:14:00,55.0,31.0,-100.00,North,-999,-999.0,-999.0,39,-99.99,,,-99.99,,2013-05-16 01:14:00,
2013-05-15 19:25:00,55.0,29.0,-100.00,North,-999,-999.0,-999.0,37,-99.99,,,-99.99,,2013-05-16 01:25:00,
2013-05-15 19:34:00,53.0,30.0,-100.00,North,-999,-999.0,-999.0,41,-99.99,,,-99.99,,2013-05-16 01:34:00,
2013-05-15 19:57:00,54.0,29.0,-100.00,North,-999,-999.0,-999.0,38,-99.99,,,-99.99,,2013-05-16 01:57:00,
2013-05-15 20:03:00,53.0,27.0,-100.00,North,-999,-999.0,-999.0,37,-99.99,,,-99.99,,2013-05-16 02:03:00,
2013-05-15 20:13:00,53.0,27.0,-100.00,North,-999,-999.0,-999.0,37,-99.99,,,-99.99,,2013-05-16 02:13:00,
2013-05-15 20:26:00,53.0,27.0,-100.00,North,-999,-999.0,-999.0,36,-99.99,,,-99.99,,2013-05-16 02:26:00,
2013-05-15 20:36:00,53.0,29.0,-100.00,North,-999,-999.0,-999.0,39,-99.99,,,-99.99,,2013-05-16 02:36:00,
2013-05-15 20:43:00,53.0,29.0,-100.00,North,-999,-999.0,-999.0,39,-99.99,,,-99.99,,2013-05-16 02:43:00,
2013-05-15 20:55:00,53.0,29.0,-100.00,North,-999,-999.0,-999.0,39,-99.99,,,-99.99,,2013-05-16 02:55:00,
2013-05-15 21:03:00,52.0,29.0,-100.00,North,-999,-999.0,-999.0,41,-99.99,,,-99.99,,2013-05-16 03:03:00,
2013-05-15 21:14:00,52.0,29.0,-100.00,North,-999,-999.0,-999.0,41,-99.99,,,-99.99,,2013-05-16 03:14:00,
2013-05-15 21:24:00,52.0,28.0,-100.00,North,-999,-999.0,-999.0,40,-99.99,,,-99.99,,2013-05-16 03:24:00,
2013-05-15 21:33:00,52.0,29.0,-100.00,North,-999,-999.0,-999.0,41,-99.99,,,-99.99,,2013-05-16 03:33:00,
2013-05-15 21:44:00,52.0,29.0,-100.00,North,-999,-999.0,-999.0,41,-99.99,,,-99.99,,2013-05-16 03:44:00,
2013-05-15 21:56:00,51.0,30.0,-100.00,North,-999,-999.0,-999.0,45,-99.99,,,-99.99,,2013-05-16 03:56:00,
2013-05-15 22:02:00,49.0,34.0,-100.00,North,-999,-999.0,-999.0,55,-99.99,,,-99.99,,2013-05-16 04:02:00,
2013-05-15 22:12:00,49.0,34.0,-100.00,North,-999,-999.0,-999.0,55,-99.99,,,-99.99,,2013-05-16 04:12:00,
2013-05-15 22:23:00,47.0,32.0,-100.00,North,-999,-999.0,-999.0,56,-99.99,,,-99.99,,2013-05-16 04:23:00,
2013-05-15 22:33:00,48.0,31.0,-100.00,North,-999,-999.0,-999.0,52,-99.99,,,-99.99,,2013-05-16 04:33:00,
2013-05-15 22:42:00,48.0,31.0,-100.00,North,-999,-999.0,-999.0,52,-99.99,,,-99.99,,2013-05-16 04:42:00,
2013-05-15 22:53:00,48.0,31.0,-100.00,North,-999,-999.0,-999.0,51,-99.99,,,-99.99,,2013-05-16 04:53:00,
2013-05-15 23:02:00,49.0,30.0,-100.00,North,-999,-999.0,-999.0,48,-99.99,,,-99.99,,2013-05-16 05:02:00,
2013-05-15 23:12:00,49.0,30.0,-100.00,North,-999,-999.0,-999.0,48,-99.99,,,-99.99,,2013-05-16 05:12:00,
2013-05-15 23:22:00,47.0,33.0,-100.00,North,-999,-999.0,-999.0,58,-99.99,,,-99.99,,2013-05-16 05:22:00,
2013-05-15 23:32:00,46.0,35.0,-100.00,North,-999,-999.0,-999.0,64,-99.99,,,-99.99,,2013-05-16 05:32:00,
2013-05-15 23:42:00,46.0,35.0,-100.00,North,-999,-999.0,-999.0,64,-99.99,,,-99.99,,2013-05-16 05:42:00,
2013-05-15 23:52:00,45.0,34.0,-100.00,North,-999,-999.0,-999.0,66,-99.99,,,-99.99,,2013-05-16 05:52:00,